Time;durP1;ratioP1;P1;durP2;ratioP2;P2;SDS_P1;SDS_P2;PMS_P1;PMS_P2;Temp;Humidity;BMP_temperature;BMP_pressure;BME280_temperature;BME280_humidity;BME280_pressure;Samples;Min_cycle;Max_cycle;Signal;HPM_P1;HPM_P2
2022/06/20 00:00:33;;;;;;;17.85;2.83;;;;;;;;;;5034932;28;20032;-72
2022/06/20 00:02:59;;;;;;;15.40;2.88;;;;;;;;;;5034928;28;20029;-72
2022/06/20 00:05:27;;;;;;;14.20;2.65;;;;;;;;;;5034418;28;20024;-72
2022/06/20 00:07:53;;;;;;;18.45;3.13;;;;;;;;;;5034734;28;20087;-72
2022/06/20 00:10:20;;;;;;;12.27;2.30;;;;;;;;;;5034539;28;20061;-72
2022/06/20 00:12:47;;;;;;;15.10;2.70;;;;;;;;;;5034419;28;20062;-71
2022/06/20 00:15:21;;;;;;;14.55;2.58;;;;;;;;;;5034398;28;20040;-72
2022/06/20 00:17:47;;;;;;;16.92;2.78;;;;;;;;;;5034151;28;20497;-72
2022/06/20 00:20:14;;;;;;;13.98;2.78;;;;;;;;;;5034174;28;20026;-71
2022/06/20 00:22:40;;;;;;;14.00;2.70;;;;;;;;;;5064618;22;20045;-76
2022/06/20 00:25:06;;;;;;;14.20;3.00;;;;;;;;;;5053646;28;20094;-76
2022/06/20 00:27:32;;;;;;;19.00;2.72;;;;;;;;;;5054496;28;20065;-75
2022/06/20 00:29:59;;;;;;;13.95;2.88;;;;;;;;;;5053535;28;20053;-76
2022/06/20 00:32:24;;;;;;;16.73;2.88;;;;;;;;;;5056449;28;20100;-75
2022/06/20 00:34:50;;;;;;;19.58;3.83;;;;;;;;;;5072329;28;20021;-75
2022/06/20 00:37:18;;;;;;;19.65;2.80;;;;;;;;;;5061554;28;20696;-76
2022/06/20 00:39:45;;;;;;;15.05;2.92;;;;;;;;;;5054174;28;20029;-75
2022/06/20 00:42:11;;;;;;;17.80;3.03;;;;;;;;;;5054026;28;20025;-76
2022/06/20 00:44:39;;;;;;;17.58;3.10;;;;;;;;;;5054184;28;20524;-75
2022/06/20 00:47:11;;;;;;;16.27;2.72;;;;;;;;;;5053802;28;20572;-76
2022/06/20 00:49:42;;;;;;;14.68;2.55;;;;;;;;;;5054198;28;20054;-75
2022/06/20 00:52:27;;;;;;;19.48;3.30;;;;;;;;;;5052653;28;20024;-76
2022/06/20 00:54:56;;;;;;;12.45;2.58;;;;;;;;;;5053955;28;20036;-76
2022/06/20 00:57:27;;;;;;;16.40;2.92;;;;;;;;;;5054318;28;20025;-76
2022/06/20 00:59:57;;;;;;;18.15;2.67;;;;;;;;;;5056635;28;20051;-76
2022/06/20 01:02:31;;;;;;;15.10;2.42;;;;;;;;;;5057774;28;20104;-76
2022/06/20 01:05:01;;;;;;;9.63;2.58;;;;;;;;;;5056650;28;20021;-76
2022/06/20 01:07:32;;;;;;;13.10;2.67;;;;;;;;;;5059945;28;20085;-76
2022/06/20 01:09:59;;;;;;;14.13;2.63;;;;;;;;;;5059472;28;20401;-76
2022/06/20 01:12:27;;;;;;;15.68;3.10;;;;;;;;;;5059473;28;20103;-74
2022/06/20 01:14:53;;;;;;;14.32;3.13;;;;;;;;;;5058162;28;20037;-77
2022/06/20 01:17:48;;;;;;;15.35;3.17;;;;;;;;;;5057325;28;20037;-75
2022/06/20 01:20:14;;;;;;;;;;;;;;;;;;5036961;28;20401;-75
2022/06/20 01:22:48;;;;;;;12.55;2.83;;;;;;;;;;5062382;28;19912;-75
2022/06/20 01:25:27;;;;;;;17.70;3.20;;;;;;;;;;5066770;28;20017;-76
2022/06/20 01:27:53;;;;;;;15.05;2.78;;;;;;;;;;5073958;28;20055;-75
2022/06/20 01:30:20;;;;;;;18.65;3.72;;;;;;;;;;5073077;28;20024;-75
2022/06/20 01:32:46;;;;;;;16.83;3.03;;;;;;;;;;5077648;28;20010;-76
2022/06/20 01:37:23;;;;;;;17.10;3.28;;;;;;;;;;5074248;28;20049;-76
2022/06/20 01:38:00;;;;;;;18.10;3.08;;;;;;;;;;5052919;28;20498;-76
2022/06/20 01:40:26;;;;;;;14.60;2.97;;;;;;;;;;5053660;28;20029;-76
2022/06/20 01:42:52;;;;;;;15.27;3.08;;;;;;;;;;5055286;28;20394;-75
2022/06/20 01:48:03;;;;;;;;;;;;;;;;;;5053443;28;20082;-75
2022/06/20 01:50:30;;;;;;;12.45;2.35;;;;;;;;;;5051828;28;19947;-76
2022/06/20 01:52:56;;;;;;;17.23;3.03;;;;;;;;;;5052874;28;20111;-75
2022/06/20 01:55:25;;;;;;;15.45;2.95;;;;;;;;;;5053214;28;20056;-76
2022/06/20 01:57:52;;;;;;;15.38;3.30;;;;;;;;;;5052494;28;20032;-76
2022/06/20 02:00:20;;;;;;;12.05;2.83;;;;;;;;;;5051633;28;20029;-75
2022/06/20 02:02:50;;;;;;;15.68;2.63;;;;;;;;;;5051389;28;20052;-75
2022/06/20 02:05:19;;;;;;;15.50;2.50;;;;;;;;;;5052774;28;20493;-75
2022/06/20 02:07:46;;;;;;;16.13;2.67;;;;;;;;;;5048003;28;20035;-75
2022/06/20 02:10:14;;;;;;;14.27;2.70;;;;;;;;;;5052419;28;20021;-75
2022/06/20 02:12:40;;;;;;;19.48;2.95;;;;;;;;;;5051651;28;20021;-75
2022/06/20 02:15:07;;;;;;;12.68;2.70;;;;;;;;;;5052036;28;20029;-76
2022/06/20 02:17:35;;;;;;;14.20;2.47;;;;;;;;;;5051964;28;20103;-76
2022/06/20 02:20:04;;;;;;;11.68;3.05;;;;;;;;;;5052122;28;20021;-76
2022/06/20 02:22:31;;;;;;;15.68;3.00;;;;;;;;;;5052077;28;20033;-76
2022/06/20 02:24:59;;;;;;;18.13;3.20;;;;;;;;;;5050867;28;20029;-75
2022/06/20 02:27:28;;;;;;;12.93;2.95;;;;;;;;;;5051449;28;20159;-75
2022/06/20 02:29:57;;;;;;;15.27;2.80;;;;;;;;;;5052248;28;20036;-75
2022/06/20 02:32:25;;;;;;;19.23;2.70;;;;;;;;;;5051834;28;20029;-75
2022/06/20 02:34:51;;;;;;;15.23;2.33;;;;;;;;;;5052033;28;20091;-75
2022/06/20 02:37:20;;;;;;;11.88;2.80;;;;;;;;;;5051404;28;20035;-75
2022/06/20 02:39:47;;;;;;;21.38;3.38;;;;;;;;;;5052383;28;20450;-76
2022/06/20 02:42:16;;;;;;;14.60;2.88;;;;;;;;;;5051777;28;20028;-76
2022/06/20 02:44:47;;;;;;;8.63;2.50;;;;;;;;;;5052195;28;20029;-76
2022/06/20 02:47:13;;;;;;;15.57;3.03;;;;;;;;;;5050746;28;20043;-75
2022/06/20 02:49:40;;;;;;;13.57;2.47;;;;;;;;;;5051551;28;20032;-76
2022/06/20 02:52:07;;;;;;;15.32;3.00;;;;;;;;;;5051572;28;20033;-76
2022/06/20 02:54:35;;;;;;;17.92;3.00;;;;;;;;;;5051978;28;20029;-76
2022/06/20 02:57:03;;;;;;;16.42;3.08;;;;;;;;;;5050331;28;20032;-76
2022/06/20 02:59:32;;;;;;;11.73;2.83;;;;;;;;;;5052052;28;20013;-76
2022/06/20 03:02:04;;;;;;;21.08;3.10;;;;;;;;;;5051714;28;20036;-76
2022/06/20 03:04:32;;;;;;;24.00;3.33;;;;;;;;;;5052034;28;20017;-76
2022/06/20 03:07:01;;;;;;;17.77;3.35;;;;;;;;;;5051505;28;20021;-75
2022/06/20 03:09:29;;;;;;;15.40;3.13;;;;;;;;;;5051661;28;20544;-75
2022/06/20 03:11:55;;;;;;;26.02;3.25;;;;;;;;;;5051601;28;20029;-76
2022/06/20 03:14:24;;;;;;;17.98;2.97;;;;;;;;;;5053011;28;20485;-76
2022/06/20 03:16:50;;;;;;;25.58;3.85;;;;;;;;;;5052705;28;20608;-76
2022/06/20 03:19:18;;;;;;;21.80;3.15;;;;;;;;;;5051072;28;20112;-76
2022/06/20 03:21:46;;;;;;;17.67;3.38;;;;;;;;;;5055377;28;20503;-76
2022/06/20 03:24:16;;;;;;;16.27;3.33;;;;;;;;;;5053180;28;20083;-76
2022/06/20 03:26:42;;;;;;;15.77;3.03;;;;;;;;;;5055545;28;20075;-76
2022/06/20 03:29:12;;;;;;;15.23;2.90;;;;;;;;;;5055644;28;20028;-76
2022/06/20 03:31:38;;;;;;;18.20;3.33;;;;;;;;;;5055481;28;20367;-76
2022/06/20 03:34:04;;;;;;;16.35;3.13;;;;;;;;;;5056099;28;20136;-77
2022/06/20 03:36:30;;;;;;;15.57;3.25;;;;;;;;;;5055343;28;20049;-76
2022/06/20 03:38:56;;;;;;;21.17;3.47;;;;;;;;;;5055720;28;20025;-74
2022/06/20 03:41:24;;;;;;;14.88;3.28;;;;;;;;;;5053936;28;20087;-75
2022/06/20 03:43:53;;;;;;;17.10;4.10;;;;;;;;;;5056320;28;20078;-75
2022/06/20 03:46:24;;;;;;;18.70;3.83;;;;;;;;;;5057740;28;20017;-76
2022/06/20 03:48:56;;;;;;;19.40;3.33;;;;;;;;;;5057386;28;20537;-75
2022/06/20 03:51:24;;;;;;;26.48;3.83;;;;;;;;;;5055223;28;20043;-75
2022/06/20 03:53:56;;;;;;;17.08;3.50;;;;;;;;;;5055973;28;20029;-75
2022/06/20 03:56:27;;;;;;;23.83;3.72;;;;;;;;;;5056176;28;20494;-75
2022/06/20 03:59:04;;;;;;;13.38;3.15;;;;;;;;;;5056637;28;20061;-76
2022/06/20 04:01:34;;;;;;;16.90;3.63;;;;;;;;;;5055860;28;20059;-76
2022/06/20 04:04:03;;;;;;;25.95;3.55;;;;;;;;;;5059555;28;20017;-76
2022/06/20 04:06:36;;;;;;;25.38;4.10;;;;;;;;;;5055874;28;20393;-76
2022/06/20 04:12:02;;;;;;;21.40;3.50;;;;;;;;;;5075250;28;20040;-76
2022/06/20 04:14:34;;;;;;;22.60;3.60;;;;;;;;;;5077864;28;20013;-76
2022/06/20 04:18:27;;;;;;;17.38;3.95;;;;;;;;;;5078134;28;20078;-75
2022/06/20 04:19:51;;;;;;;16.95;3.33;;;;;;;;;;5078239;28;20037;-74
2022/06/20 04:22:19;;;;;;;23.75;3.55;;;;;;;;;;5077679;28;20040;-75
2022/06/20 04:24:48;;;;;;;33.60;4.70;;;;;;;;;;5070756;28;20028;-76
2022/06/20 04:27:21;;;;;;;27.30;3.60;;;;;;;;;;5063571;28;20516;-77
2022/06/20 04:29:49;;;;;;;16.95;3.35;;;;;;;;;;5067184;28;20021;-76
2022/06/20 04:32:30;;;;;;;18.08;3.65;;;;;;;;;;5071071;28;20033;-76
2022/06/20 04:34:59;;;;;;;18.27;3.60;;;;;;;;;;5058114;28;20025;-75
2022/06/20 04:37:46;;;;;;;16.90;3.17;;;;;;;;;;5055685;28;20033;-78
2022/06/20 04:40:15;;;;;;;23.52;3.53;;;;;;;;;;5056012;28;20025;-75
2022/06/20 04:42:45;;;;;;;19.40;3.38;;;;;;;;;;5054757;28;20449;-76
2022/06/20 04:45:14;;;;;;;24.65;4.03;;;;;;;;;;5056082;28;20083;-76
2022/06/20 04:47:43;;;;;;;19.60;3.83;;;;;;;;;;5053223;28;20079;-76
2022/06/20 04:50:14;;;;;;;29.35;4.15;;;;;;;;;;5054516;28;20397;-75
2022/06/20 04:52:40;;;;;;;18.50;3.22;;;;;;;;;;5053321;28;20025;-77
2022/06/20 04:55:06;;;;;;;24.42;3.40;;;;;;;;;;5055919;28;20135;-73
2022/06/20 04:57:33;;;;;;;22.38;3.58;;;;;;;;;;5054629;28;20158;-75
2022/06/20 05:00:04;;;;;;;27.48;3.30;;;;;;;;;;5054303;28;20024;-75
2022/06/20 05:02:30;;;;;;;22.95;4.35;;;;;;;;;;5055439;28;20017;-76
2022/06/20 05:04:58;;;;;;;21.73;3.90;;;;;;;;;;5056281;28;20021;-75
2022/06/20 05:07:27;;;;;;;22.20;3.92;;;;;;;;;;5057360;28;20036;-76
2022/06/20 05:09:56;;;;;;;23.65;3.50;;;;;;;;;;5057904;28;20379;-76
2022/06/20 05:12:25;;;;;;;25.20;3.50;;;;;;;;;;5057566;28;20116;-76
2022/06/20 05:15:05;;;;;;;19.48;3.67;;;;;;;;;;5056766;28;20037;-76
2022/06/20 05:17:32;;;;;;;25.17;3.88;;;;;;;;;;5057425;28;20043;-76
2022/06/20 05:20:01;;;;;;;25.40;3.33;;;;;;;;;;5056726;28;20025;-76
2022/06/20 05:22:29;;;;;;;21.63;3.25;;;;;;;;;;5057068;28;20037;-76
2022/06/20 05:24:57;;;;;;;16.10;3.38;;;;;;;;;;5054282;28;20156;-78
2022/06/20 05:27:26;;;;;;;15.85;2.80;;;;;;;;;;5053633;28;20110;-76
2022/06/20 05:29:54;;;;;;;21.48;3.60;;;;;;;;;;5053930;28;20029;-75
2022/06/20 05:32:23;;;;;;;17.38;2.75;;;;;;;;;;5053920;28;20071;-77
2022/06/20 05:35:05;;;;;;;18.63;2.75;;;;;;;;;;5054448;28;20033;-75
2022/06/20 05:37:50;;;;;;;18.10;3.58;;;;;;;;;;5055801;28;20021;-76
2022/06/20 05:40:16;;;;;;;23.90;3.75;;;;;;;;;;5054130;28;20402;-74
2022/06/20 05:42:42;;;;;;;18.65;3.10;;;;;;;;;;5055322;28;20023;-76
2022/06/20 05:45:16;;;;;;;23.55;3.47;;;;;;;;;;5053956;28;20025;-74
2022/06/20 05:47:43;;;;;;;23.17;3.28;;;;;;;;;;5052498;28;20059;-76
2022/06/20 05:50:12;;;;;;;30.42;4.35;;;;;;;;;;5053126;28;20482;-76
2022/06/20 05:52:40;;;;;;;20.05;3.75;;;;;;;;;;5052822;28;20025;-75
2022/06/20 05:55:11;;;;;;;21.02;3.22;;;;;;;;;;5052364;28;20052;-76
2022/06/20 05:57:40;;;;;;;19.80;3.50;;;;;;;;;;5053153;28;20053;-77
2022/06/20 06:00:12;;;;;;;22.77;3.58;;;;;;;;;;5053244;28;20021;-76
2022/06/20 06:03:02;;;;;;;19.33;3.63;;;;;;;;;;5053614;28;20466;-76
2022/06/20 06:05:35;;;;;;;15.15;3.08;;;;;;;;;;5040307;28;20052;-76
2022/06/20 06:08:22;;;;;;;15.57;3.28;;;;;;;;;;5053018;28;20050;-77
2022/06/20 06:11:10;;;;;;;23.05;3.05;;;;;;;;;;5054070;28;20167;-77
2022/06/20 06:13:43;;;;;;;21.23;3.83;;;;;;;;;;5054971;28;20064;-76
2022/06/20 06:19:04;;;;;;;23.25;3.30;;;;;;;;;;5056115;28;20060;-76
2022/06/20 06:21:30;;;;;;;19.25;2.97;;;;;;;;;;5053733;28;20017;-75
2022/06/20 06:23:57;;;;;;;14.43;3.13;;;;;;;;;;5054002;28;20523;-76
2022/06/20 06:26:23;;;;;;;17.38;3.20;;;;;;;;;;5056102;28;20021;-77
2022/06/20 06:28:49;;;;;;;20.98;3.17;;;;;;;;;;5054438;28;20104;-75
2022/06/20 06:31:18;;;;;;;16.33;3.28;;;;;;;;;;5053735;28;20048;-77
2022/06/20 06:33:49;;;;;;;15.48;3.00;;;;;;;;;;5053529;28;20047;-76
2022/06/20 06:36:18;;;;;;;14.18;2.50;;;;;;;;;;5053414;28;20113;-77
2022/06/20 06:38:48;;;;;;;18.65;2.85;;;;;;;;;;5052177;28;20581;-74
2022/06/20 06:41:19;;;;;;;13.25;2.97;;;;;;;;;;5052363;28;20029;-77
2022/06/20 06:43:46;;;;;;;13.98;2.67;;;;;;;;;;5052395;28;20045;-74
2022/06/20 06:46:15;;;;;;;16.55;2.42;;;;;;;;;;5053527;28;20580;-76
2022/06/20 06:48:41;;;;;;;13.57;2.45;;;;;;;;;;5052676;28;20486;-76
2022/06/20 06:51:09;;;;;;;18.33;6.70;;;;;;;;;;5052539;28;20025;-77
2022/06/20 06:53:42;;;;;;;15.43;3.58;;;;;;;;;;5050369;28;20124;-77
2022/06/20 06:56:17;;;;;;;8.15;2.00;;;;;;;;;;5052937;28;20025;-76
2022/06/20 06:58:49;;;;;;;10.00;2.05;;;;;;;;;;5059032;28;20048;-73
2022/06/20 07:01:19;;;;;;;16.38;2.35;;;;;;;;;;5064251;28;20025;-74
2022/06/20 07:03:48;;;;;;;15.05;2.92;;;;;;;;;;5065407;28;20115;-74
2022/06/20 07:06:17;;;;;;;9.27;2.08;;;;;;;;;;5067399;28;20051;-81
2022/06/20 07:08:46;;;;;;;13.07;2.25;;;;;;;;;;5067797;28;20028;-76
2022/06/20 07:11:21;;;;;;;11.95;2.13;;;;;;;;;;5074941;28;20032;-76
2022/06/20 07:14:02;;;;;;;9.65;2.10;;;;;;;;;;5062767;28;20049;-76
2022/06/20 07:16:39;;;;;;;13.57;2.33;;;;;;;;;;5055866;28;20025;-76
2022/06/20 07:19:06;;;;;;;13.00;2.47;;;;;;;;;;5055967;28;20029;-76
2022/06/20 07:21:33;;;;;;;14.65;2.38;;;;;;;;;;5056568;28;20037;-77
2022/06/20 07:24:00;;;;;;;9.25;1.98;;;;;;;;;;5057482;28;20021;-76
2022/06/20 07:26:29;;;;;;;8.75;2.30;;;;;;;;;;5057406;28;20032;-76
2022/06/20 07:29:01;;;;;;;19.58;3.03;;;;;;;;;;5059257;28;20312;-75
2022/06/20 07:31:27;;;;;;;11.80;2.22;;;;;;;;;;5059903;28;20032;-77
2022/06/20 07:34:00;;;;;;;13.05;2.88;;;;;;;;;;5061038;28;20082;-76
2022/06/20 07:36:29;;;;;;;13.68;3.03;;;;;;;;;;5060247;28;20032;-74
2022/06/20 07:38:55;;;;;;;11.73;2.92;;;;;;;;;;5062631;28;20029;-75
2022/06/20 07:41:44;;;;;;;17.58;2.83;;;;;;;;;;5066179;28;20029;-74
2022/06/20 07:44:17;;;;;;;9.02;2.70;;;;;;;;;;5055011;28;20114;-74
2022/06/20 07:46:49;;;;;;;12.05;2.67;;;;;;;;;;5067075;28;20025;-75
2022/06/20 07:49:25;;;;;;;10.45;2.90;;;;;;;;;;5063651;28;20057;-76
2022/06/20 07:51:55;;;;;;;13.10;2.80;;;;;;;;;;5064210;28;20025;-76
2022/06/20 07:54:27;;;;;;;8.68;2.60;;;;;;;;;;5057374;28;20051;-76
2022/06/20 07:57:12;;;;;;;9.82;2.78;;;;;;;;;;5060294;28;20390;-75
2022/06/20 07:59:38;;;;;;;;;;;;;;;;;;5075918;28;20055;-76
2022/06/20 08:02:06;;;;;;;11.93;3.40;;;;;;;;;;5069974;28;19909;-74
2022/06/20 08:04:33;;;;;;;8.88;2.85;;;;;;;;;;5063083;28;20073;-75
2022/06/20 08:07:04;;;;;;;13.60;3.78;;;;;;;;;;5060756;28;20040;-75
2022/06/20 08:09:52;;;;;;;15.65;3.40;;;;;;;;;;5057917;28;20032;-75
2022/06/20 08:12:25;;;;;;;10.27;2.88;;;;;;;;;;5053954;28;20033;-74
2022/06/20 08:14:55;;;;;;;16.15;3.30;;;;;;;;;;5054969;28;20028;-76
2022/06/20 08:17:22;;;;;;;13.85;3.65;;;;;;;;;;5055063;28;20021;-78
2022/06/20 08:19:49;;;;;;;15.20;3.78;;;;;;;;;;5055145;28;20225;-76
2022/06/20 08:22:21;;;;;;;14.15;3.05;;;;;;;;;;5054768;28;20086;-75
2022/06/20 08:24:59;;;;;;;7.50;1.80;;;;;;;;;;5054708;28;20021;-75
2022/06/20 08:27:30;;;;;;;11.40;1.88;;;;;;;;;;5054459;28;20056;-75
2022/06/20 08:30:02;;;;;;;9.23;2.47;;;;;;;;;;5054740;28;20020;-76
2022/06/20 08:32:42;;;;;;;12.82;3.08;;;;;;;;;;5054713;28;20025;-75
2022/06/20 08:35:18;;;;;;;16.33;2.67;;;;;;;;;;5054579;28;20033;-75
2022/06/20 08:37:50;;;;;;;16.17;2.60;;;;;;;;;;5055127;28;20108;-74
2022/06/20 08:40:16;;;;;;;17.40;4.40;;;;;;;;;;5054904;28;20017;-75
2022/06/20 08:43:01;;;;;;;21.48;6.85;;;;;;;;;;5054344;28;20498;-75
2022/06/20 08:45:27;;;;;;;9.00;2.50;;;;;;;;;;5053674;28;20025;-75
2022/06/20 08:48:12;;;;;;;18.83;5.35;;;;;;;;;;5055450;28;20021;-74
2022/06/20 08:50:47;;;;;;;13.35;4.78;;;;;;;;;;5054527;28;20021;-75
2022/06/20 08:53:19;;;;;;;10.43;2.78;;;;;;;;;;5053942;28;20035;-75
2022/06/20 08:56:07;;;;;;;10.70;2.60;;;;;;;;;;5054645;28;20478;-76
2022/06/20 08:58:56;;;;;;;11.80;2.58;;;;;;;;;;5054352;28;20021;-76
2022/06/20 09:01:21;;;;;;;14.63;4.60;;;;;;;;;;5054514;28;20025;-75
2022/06/20 09:04:06;;;;;;;13.95;2.88;;;;;;;;;;5052723;28;20430;-77
2022/06/20 09:06:32;;;;;;;;;;;;;;;;;;5054367;28;20029;-77
2022/06/20 09:09:18;;;;;;;13.27;3.08;;;;;;;;;;5054578;28;19928;-77
2022/06/20 09:12:03;;;;;;;18.60;3.05;;;;;;;;;;5054538;28;20103;-75
2022/06/20 09:14:47;;;;;;;16.10;2.83;;;;;;;;;;5053196;28;20035;-76
2022/06/20 09:17:28;;;;;;;10.75;2.75;;;;;;;;;;5054385;28;20075;-76
2022/06/20 09:19:57;;;;;;;12.05;2.72;;;;;;;;;;5053714;28;20509;-77
2022/06/20 09:22:43;;;;;;;15.70;3.35;;;;;;;;;;5054324;28;20036;-82
2022/06/20 09:25:13;;;;;;;13.32;3.08;;;;;;;;;;5053779;28;20056;-76
2022/06/20 09:27:44;;;;;;;12.13;3.63;;;;;;;;;;5052092;28;20032;-75
2022/06/20 09:30:12;;;;;;;16.20;3.08;;;;;;;;;;5054646;28;20476;-76
2022/06/20 09:32:47;;;;;;;12.65;2.70;;;;;;;;;;5054884;28;20052;-77
2022/06/20 09:35:30;;;;;;;14.10;3.17;;;;;;;;;;5052199;28;20072;-75
2022/06/20 09:38:12;;;;;;;13.60;2.88;;;;;;;;;;5053696;28;20116;-75
2022/06/20 09:41:17;;;;;;;9.13;2.65;;;;;;;;;;5053896;28;20371;-74
2022/06/20 09:43:59;;;;;;;12.45;2.78;;;;;;;;;;4973346;28;20027;-75
2022/06/20 09:46:31;;;;;;;10.57;2.70;;;;;;;;;;4974598;28;20030;-76
2022/06/20 09:49:05;;;;;;;7.80;2.28;;;;;;;;;;5046314;28;20033;-75
2022/06/20 09:51:44;;;;;;;11.47;2.37;;;;;;;;;;5074920;28;20072;-75
2022/06/20 09:54:20;;;;;;;15.27;2.60;;;;;;;;;;5073655;28;20120;-75
2022/06/20 09:56:45;;;;;;;12.00;2.58;;;;;;;;;;5075797;28;20029;-77
2022/06/20 09:59:14;;;;;;;10.75;2.85;;;;;;;;;;5075592;28;20040;-74
2022/06/20 10:01:40;;;;;;;14.68;2.70;;;;;;;;;;5063571;28;20094;-75
2022/06/20 10:04:18;;;;;;;10.75;2.90;;;;;;;;;;5058074;28;20616;-75
2022/06/20 10:06:49;;;;;;;11.50;2.60;;;;;;;;;;5061456;28;20025;-76
2022/06/20 10:09:21;;;;;;;12.00;2.70;;;;;;;;;;5063951;28;20049;-75
2022/06/20 10:11:47;;;;;;;14.02;2.97;;;;;;;;;;5056753;28;20033;-75
2022/06/20 10:14:19;;;;;;;10.75;2.72;;;;;;;;;;5055774;28;20029;-75
2022/06/20 10:16:48;;;;;;;12.68;2.85;;;;;;;;;;5051727;28;20029;-76
2022/06/20 10:19:18;;;;;;;13.18;2.38;;;;;;;;;;5053600;28;20128;-73
2022/06/20 10:21:44;;;;;;;17.88;2.67;;;;;;;;;;5054025;28;20021;-74
2022/06/20 10:24:27;;;;;;;9.43;3.08;;;;;;;;;;5053554;28;20104;-76
2022/06/20 10:26:56;;;;;;;15.32;3.58;;;;;;;;;;5053160;28;20025;-75
2022/06/20 10:29:22;;;;;;;8.48;2.63;;;;;;;;;;5053655;28;20517;-76
2022/06/20 10:31:48;;;;;;;16.98;3.03;;;;;;;;;;5052415;28;20025;-76
2022/06/20 10:34:28;;;;;;;10.57;3.30;;;;;;;;;;5052773;28;20029;-75
2022/06/20 10:36:54;;;;;;;16.52;2.75;;;;;;;;;;5052414;28;20029;-75
2022/06/20 10:39:43;;;;;;;13.02;3.25;;;;;;;;;;5053433;28;20032;-76
2022/06/20 10:42:12;;;;;;;12.55;3.55;;;;;;;;;;5046736;28;20048;-74
2022/06/20 10:44:47;;;;;;;16.50;4.80;;;;;;;;;;5054859;28;20078;-75
2022/06/20 10:47:19;;;;;;;9.80;3.55;;;;;;;;;;5062084;28;20071;-74
2022/06/20 10:50:00;;;;;;;10.32;2.70;;;;;;;;;;5061217;28;20032;-74
2022/06/20 10:52:26;;;;;;;12.48;2.70;;;;;;;;;;5061426;28;20025;-76
2022/06/20 10:54:52;;;;;;;11.27;3.17;;;;;;;;;;5060642;28;20059;-75
2022/06/20 10:57:18;;;;;;;10.75;2.70;;;;;;;;;;5057989;28;20059;-75
2022/06/20 10:59:59;;;;;;;16.52;3.53;;;;;;;;;;5059968;28;20036;-74
2022/06/20 11:02:44;;;;;;;10.20;2.70;;;;;;;;;;5060501;28;20048;-75
2022/06/20 11:05:16;;;;;;;15.40;2.72;;;;;;;;;;5059449;28;20017;-74
2022/06/20 11:08:07;;;;;;;9.48;2.40;;;;;;;;;;5054619;28;20032;-74
2022/06/20 11:10:36;;;;;;;7.68;2.45;;;;;;;;;;5052721;28;20103;-75
2022/06/20 11:13:08;;;;;;;12.85;3.13;;;;;;;;;;5050924;28;20032;-74
2022/06/20 11:15:50;;;;;;;7.22;1.60;;;;;;;;;;5050427;28;20067;-74
2022/06/20 11:18:28;;;;;;;6.97;1.67;;;;;;;;;;5051998;28;20029;-76
2022/06/20 11:21:03;;;;;;;8.20;2.20;;;;;;;;;;5050739;28;20017;-74
2022/06/20 11:23:28;;;;;;;6.68;2.08;;;;;;;;;;5049542;28;20025;-74
2022/06/20 11:25:54;;;;;;;8.30;2.50;;;;;;;;;;5049355;28;20720;-75
2022/06/20 11:28:28;;;;;;;6.85;1.70;;;;;;;;;;5050618;28;20663;-75
2022/06/20 11:31:03;;;;;;;7.40;1.73;;;;;;;;;;5051236;28;20037;-74
2022/06/20 11:36:18;;;;;;;9.02;2.10;;;;;;;;;;5051494;28;20429;-76
2022/06/20 11:38:57;;;;;;;15.40;2.47;;;;;;;;;;5051306;28;20026;-73
2022/06/20 11:41:30;;;;;;;9.98;2.03;;;;;;;;;;5050195;28;20028;-74
2022/06/20 11:44:15;;;;;;;11.93;2.08;;;;;;;;;;5051734;28;20025;-75
2022/06/20 11:46:41;;;;;;;;;;;;;;;;;;5054661;28;20022;-75
2022/06/20 11:49:10;;;;;;;7.93;1.80;;;;;;;;;;5054310;28;20133;-75
2022/06/20 11:51:36;;;;;;;6.68;1.77;;;;;;;;;;5054185;28;20029;-74
2022/06/20 11:54:16;;;;;;;2.25;1.10;;;;;;;;;;5054697;28;20029;-75
2022/06/20 11:56:51;;;;;;;7.97;1.70;;;;;;;;;;5053883;28;20025;-74
2022/06/20 11:59:21;;;;;;;7.72;1.65;;;;;;;;;;5054061;28;20029;-75
2022/06/20 12:01:50;;;;;;;4.80;1.67;;;;;;;;;;5053963;28;20044;-75
2022/06/20 12:04:21;;;;;;;5.65;1.25;;;;;;;;;;5054843;28;20061;-75
2022/06/20 12:06:57;;;;;;;3.22;1.20;;;;;;;;;;5060833;28;20047;-75
2022/06/20 12:09:44;;;;;;;9.63;1.80;;;;;;;;;;5072294;28;20033;-73
2022/06/20 12:12:10;;;;;;;6.25;1.80;;;;;;;;;;5053118;28;20045;-74
2022/06/20 12:14:48;;;;;;;9.55;1.38;;;;;;;;;;5052391;28;20040;-74
2022/06/20 12:17:23;;;;;;;6.28;1.60;;;;;;;;;;5053513;28;20165;-74
2022/06/20 12:25:45;;;;;;;2.75;1.00;;;;;;;;;;5060359;28;20439;-77
2022/06/20 12:28:21;;;;;;;6.00;1.40;;;;;;;;;;5063085;28;20055;-76
2022/06/20 12:30:47;;;;;;;4.18;1.27;;;;;;;;;;5063792;28;20117;-78
2022/06/20 12:33:14;;;;;;;3.03;1.38;;;;;;;;;;5063929;28;20064;-75
2022/06/20 12:35:49;;;;;;;4.47;1.23;;;;;;;;;;5066108;28;20029;-75
2022/06/20 12:38:21;;;;;;;3.35;1.25;;;;;;;;;;5067247;28;20108;-72
2022/06/20 12:40:56;;;;;;;3.33;1.20;;;;;;;;;;5068070;28;20027;-75
2022/06/20 12:43:41;;;;;;;6.60;1.48;;;;;;;;;;5070432;28;20036;-74
2022/06/20 12:46:23;;;;;;;8.10;1.30;;;;;;;;;;5061617;28;20029;-76
2022/06/20 12:49:02;;;;;;;5.90;1.30;;;;;;;;;;5056568;28;20033;-74
2022/06/20 12:51:34;;;;;;;3.85;1.20;;;;;;;;;;5062026;28;20031;-77
2022/06/20 12:54:00;;;;;;;2.42;1.00;;;;;;;;;;5057469;28;20033;-75
2022/06/20 12:56:32;;;;;;;3.80;1.15;;;;;;;;;;5056006;28;20036;-75
2022/06/20 12:59:12;;;;;;;6.05;1.20;;;;;;;;;;5056034;28;20029;-77
2022/06/20 13:01:42;;;;;;;3.78;1.08;;;;;;;;;;5058919;28;20025;-77
2022/06/20 13:04:08;;;;;;;9.35;1.40;;;;;;;;;;5057200;28;20021;-78
2022/06/20 13:06:58;;;;;;;6.43;1.52;;;;;;;;;;5056062;28;20017;-79
2022/06/20 13:09:30;;;;;;;12.15;1.70;;;;;;;;;;5061165;28;20028;-76
2022/06/20 13:12:10;;;;;;;3.78;1.45;;;;;;;;;;5065006;28;20086;-77
2022/06/20 13:15:02;;;;;;;7.65;1.50;;;;;;;;;;5078115;28;20083;-75
2022/06/20 13:17:52;;;;;;;7.88;1.90;;;;;;;;;;5070842;28;20033;-75
2022/06/20 13:20:25;;;;;;;7.05;1.67;;;;;;;;;;5009339;28;20485;-75
2022/06/20 13:22:59;;;;;;;4.93;1.60;;;;;;;;;;5055270;28;20485;-75
2022/06/20 13:25:35;;;;;;;7.65;1.65;;;;;;;;;;5054844;28;20104;-76
2022/06/20 13:28:17;;;;;;;5.70;2.20;;;;;;;;;;5054246;28;20023;-77
2022/06/20 13:30:55;;;;;;;5.50;1.70;;;;;;;;;;5054013;28;20456;-75
2022/06/20 13:33:42;;;;;;;10.23;1.60;;;;;;;;;;5052970;28;20035;-76
2022/06/20 13:36:10;;;;;;;4.93;1.80;;;;;;;;;;5054009;28;20083;-76
2022/06/20 13:38:43;;;;;;;8.90;1.80;;;;;;;;;;5055224;28;20025;-75
2022/06/20 13:41:15;;;;;;;7.85;1.65;;;;;;;;;;5054597;28;20021;-77
2022/06/20 13:43:58;;;;;;;9.15;1.88;;;;;;;;;;5056256;28;20386;-76
2022/06/20 13:46:27;;;;;;;6.22;1.30;;;;;;;;;;5054534;28;20114;-77
2022/06/20 13:49:12;;;;;;;8.18;1.65;;;;;;;;;;5052291;28;20036;-76
2022/06/20 13:51:42;;;;;;;11.32;1.42;;;;;;;;;;5054201;28;20020;-75
2022/06/20 13:54:11;;;;;;;9.23;1.50;;;;;;;;;;5056300;28;20040;-75
2022/06/20 13:57:00;;;;;;;8.10;1.75;;;;;;;;;;5055605;28;20379;-81
2022/06/20 13:59:29;;;;;;;9.98;1.70;;;;;;;;;;5051792;28;20432;-75
2022/06/20 14:02:00;;;;;;;6.30;1.65;;;;;;;;;;5054633;28;20036;-77
2022/06/20 14:04:27;;;;;;;7.88;1.45;;;;;;;;;;5055670;28;20025;-75
2022/06/20 14:06:55;;;;;;;7.10;1.65;;;;;;;;;;5053585;28;20387;-75
2022/06/20 14:09:25;;;;;;;12.13;2.05;;;;;;;;;;5057540;28;20052;-78
2022/06/20 14:11:53;;;;;;;11.65;2.17;;;;;;;;;;5053153;28;20025;-77
2022/06/20 14:14:39;;;;;;;6.63;1.60;;;;;;;;;;5054477;28;20025;-78
2022/06/20 14:17:22;;;;;;;6.85;1.55;;;;;;;;;;5055419;28;20025;-79
2022/06/20 14:19:50;;;;;;;10.50;1.58;;;;;;;;;;5057427;28;20027;-78
2022/06/20 14:22:31;;;;;;;9.85;1.50;;;;;;;;;;5055498;28;20025;-76
2022/06/20 14:24:58;;;;;;;6.90;1.52;;;;;;;;;;5057100;28;20036;-78
2022/06/20 14:27:26;;;;;;;3.30;1.80;;;;;;;;;;5058059;28;20090;-78
2022/06/20 14:30:20;;;;;;;6.45;2.28;;;;;;;;;;5058385;28;20393;-77
2022/06/20 14:32:49;;;;;;;4.88;1.73;;;;;;;;;;5058391;28;20025;-77
2022/06/20 14:35:21;;;;;;;8.27;1.33;;;;;;;;;;5058585;28;20075;-79
2022/06/20 14:37:56;;;;;;;9.45;2.42;;;;;;;;;;5061086;28;20092;-75
2022/06/20 14:40:28;;;;;;;5.78;1.35;;;;;;;;;;5060265;28;20488;-76
2022/06/20 14:43:04;;;;;;;4.95;1.60;;;;;;;;;;5060335;28;20023;-76
2022/06/20 14:45:41;;;;;;;5.15;1.40;;;;;;;;;;5057569;28;20021;-77
2022/06/20 14:48:15;;;;;;;5.90;1.73;;;;;;;;;;5057886;28;20036;-75
2022/06/20 14:50:47;;;;;;;7.50;1.90;;;;;;;;;;5056159;28;20025;-77
2022/06/20 14:53:29;;;;;;;4.57;1.60;;;;;;;;;;5054766;28;20029;-76
2022/06/20 14:56:01;;;;;;;5.18;1.60;;;;;;;;;;5054201;28;20061;-76
2022/06/20 14:58:46;;;;;;;7.18;1.63;;;;;;;;;;5053538;28;20070;-76
2022/06/20 15:01:32;;;;;;;6.85;1.70;;;;;;;;;;5053531;28;20028;-76
2022/06/20 15:04:04;;;;;;;7.35;2.08;;;;;;;;;;5051557;28;20013;-76
2022/06/20 15:06:30;;;;;;;11.20;2.30;;;;;;;;;;5053116;28;20025;-77
2022/06/20 15:09:25;;;;;;;6.22;1.65;;;;;;;;;;5053835;28;20126;-75
2022/06/20 15:11:51;;;;;;;;;;;;;;;;;;5050535;28;20055;-75
2022/06/20 15:14:23;;;;;;;9.75;5.38;;;;;;;;;;5055094;28;19976;-76
2022/06/20 15:16:52;;;;;;;10.57;4.05;;;;;;;;;;5056148;28;20032;-76
2022/06/20 15:19:36;;;;;;;5.45;1.60;;;;;;;;;;5056304;28;20482;-75
2022/06/20 15:22:02;;;;;;;;;;;;;;;;;;5062028;28;20036;-77